Weather  for  Los Alamos  -  United States    United States

8 °C (46 °F)

Current METAR for Los Alamos is :

KLAM 210255Z AUTO 23011KT 10SM BKN090 08/M18 A3010 RMK AO2 T00751181


This is a report for Los Alamos - United States.
The report was made 8 minutes ago, at 02:55 UTC .
The wind was blowing at a speed of 5.7 meters per second (12.7 miles per hour) from southwest (230°).
The temperature was 8 °C (46 °F), with a dew-point at -18 °C (-0 °F).
The atmospheric pressure was 1019 hPa (30.10 inHg).
The relative humidity was 13.8%.
There were broken clouds at a height of 2743 meters (9000 feet).
The overall visibility was 16.1 kilometers (10.0 miles).


Country :   A   B   C   D   E   F   G   H   I   J   K   L   M   N   O   P   Q   R   S   T   U   V   W   Y   Z


Site Info  |  Disclaimer  |  Credits  |  Privacy
Contact us  |  Add to favorites
© 2013-2018 METARs - All rights reserved